createdAt,value
2018-03-27T00:02:11.921Z,83.19
2018-03-27T00:04:39.760Z,83.30
2018-03-27T00:07:07.437Z,83.36
2018-03-27T00:09:35.089Z,83.43
2018-03-27T00:12:02.974Z,83.65
2018-03-27T00:14:30.658Z,83.85
2018-03-27T00:16:58.254Z,83.90
2018-03-27T00:19:25.833Z,83.95
2018-03-27T00:21:54.112Z,84.01
2018-03-27T00:24:21.706Z,84.12
2018-03-27T00:27:01.218Z,84.16
2018-03-27T00:29:40.512Z,84.15
2018-03-27T00:32:19.918Z,84.19
2018-03-27T00:34:59.287Z,84.24
2018-03-27T00:37:38.877Z,84.41
2018-03-27T00:40:18.428Z,84.42
2018-03-27T00:42:51.956Z,84.46
2018-03-27T00:45:19.853Z,84.46
2018-03-27T00:47:47.522Z,84.49
2018-03-27T00:50:15.320Z,84.54
2018-03-27T00:52:42.969Z,84.58
2018-03-27T00:55:10.695Z,84.55
2018-03-27T00:57:38.599Z,84.65
2018-03-27T01:00:06.470Z,84.65
2018-03-27T01:02:34.297Z,84.61
2018-03-27T01:05:07.463Z,84.65
2018-03-27T01:07:35.086Z,84.66
2018-03-27T01:10:02.686Z,84.63
2018-03-27T01:12:30.354Z,84.52
2018-03-27T01:14:58.739Z,84.39
2018-03-27T01:17:26.415Z,84.27
2018-03-27T01:19:54.374Z,84.17
2018-03-27T01:22:22.039Z,84.10
2018-03-27T01:24:49.759Z,84.15
2018-03-27T01:27:17.633Z,84.18
2018-03-27T01:29:45.544Z,84.18
2018-03-27T01:32:13.142Z,84.13
2018-03-27T01:34:40.728Z,84.03
2018-03-27T01:37:09.263Z,84.04
2018-03-27T01:39:36.911Z,84.01
2018-03-27T01:42:04.500Z,83.96
2018-03-27T01:44:32.171Z,83.83
2018-03-27T01:47:00.158Z,83.75
2018-03-27T01:49:27.873Z,83.80
2018-03-27T01:51:56.081Z,83.81
2018-03-27T01:54:23.883Z,83.83
2018-03-27T01:56:51.571Z,83.84
2018-03-27T01:59:19.646Z,83.85
2018-03-27T02:01:47.307Z,83.92
2018-03-27T02:04:15.042Z,84.02
2018-03-27T02:06:43.056Z,84.02
2018-03-27T02:09:10.817Z,84.06
2018-03-27T02:11:44.216Z,84.01
2018-03-27T02:14:17.837Z,83.98
2018-03-27T02:16:51.304Z,84.04
2018-03-27T02:19:24.634Z,84.13
2018-03-27T02:21:52.190Z,84.20
2018-03-27T02:24:20.416Z,84.24
2018-03-27T02:26:48.142Z,84.30
2018-03-27T02:29:15.867Z,84.31
2018-03-27T02:31:44.122Z,84.38
2018-03-27T02:34:11.873Z,84.43
2018-03-27T02:36:39.493Z,84.41
2018-03-27T02:39:07.220Z,84.27
2018-03-27T02:41:34.860Z,84.31
2018-03-27T02:44:02.469Z,84.29
2018-03-27T02:46:30.210Z,84.30
2018-03-27T02:48:58.071Z,84.33
2018-03-27T02:51:26.602Z,84.42
2018-03-27T02:53:54.454Z,84.47
2018-03-27T02:56:22.119Z,84.48
2018-03-27T02:58:49.775Z,84.48
2018-03-27T03:01:17.417Z,84.50
2018-03-27T03:03:45.199Z,84.52
2018-03-27T03:06:12.886Z,84.54
2018-03-27T03:08:40.877Z,84.62
2018-03-27T03:11:08.532Z,84.75
2018-03-27T03:13:36.261Z,84.92
2018-03-27T03:16:03.879Z,85.09
2018-03-27T03:18:31.488Z,85.10
2018-03-27T03:20:59.167Z,85.13
2018-03-27T03:23:26.946Z,85.14
2018-03-27T03:25:54.525Z,85.09
2018-03-27T03:28:22.232Z,85.06
2018-03-27T03:30:49.854Z,85.07
2018-03-27T03:33:17.481Z,85.17
2018-03-27T03:35:45.708Z,85.20
2018-03-27T03:38:13.303Z,85.19
2018-03-27T03:40:40.965Z,85.33
2018-03-27T03:43:08.599Z,85.64
2018-03-27T03:45:36.271Z,85.81
2018-03-27T03:48:03.932Z,85.91
2018-03-27T03:50:31.555Z,85.97
2018-03-27T03:52:59.136Z,86.10
2018-03-27T03:55:26.841Z,86.32
2018-03-27T03:57:54.439Z,86.42
2018-03-27T04:00:22.143Z,86.54
2018-03-27T04:02:49.737Z,86.66
2018-03-27T04:05:17.599Z,86.73
2018-03-27T04:07:45.248Z,86.86
2018-03-27T04:10:13.295Z,86.95
2018-03-27T04:12:40.945Z,87.02
2018-03-27T04:15:08.557Z,87.09
2018-03-27T04:17:36.196Z,87.11
2018-03-27T04:20:03.779Z,87.09
2018-03-27T04:22:31.439Z,87.11
2018-03-27T04:24:59.053Z,87.08
2018-03-27T04:27:26.744Z,86.97
2018-03-27T04:29:54.379Z,86.87
2018-03-27T04:32:22.007Z,86.79
2018-03-27T04:34:49.605Z,86.78
2018-03-27T04:37:17.229Z,86.75
2018-03-27T04:39:44.865Z,86.76
2018-03-27T04:42:12.549Z,86.75
2018-03-27T04:44:40.177Z,86.75
2018-03-27T04:47:07.788Z,86.81
2018-03-27T04:49:35.411Z,87.04
2018-03-27T04:52:03.003Z,87.17
2018-03-27T04:54:30.667Z,87.46
2018-03-27T04:56:58.302Z,88.23
2018-03-27T04:59:25.902Z,88.39
2018-03-27T05:01:53.529Z,88.36
2018-03-27T05:04:21.113Z,88.36
2018-03-27T05:06:48.746Z,88.34
2018-03-27T05:09:16.337Z,88.29
2018-03-27T05:11:44.254Z,88.35
2018-03-27T05:14:12.147Z,88.27
2018-03-27T05:16:39.914Z,88.30
2018-03-27T05:19:07.504Z,87.97
2018-03-27T05:21:35.169Z,87.76
2018-03-27T05:24:02.745Z,87.63
2018-03-27T05:26:30.415Z,87.51
2018-03-27T05:28:58.068Z,87.51
2018-03-27T05:31:25.842Z,87.52
2018-03-27T05:33:53.664Z,87.48
2018-03-27T05:36:21.551Z,87.48
2018-03-27T05:38:49.384Z,87.53
2018-03-27T05:41:17.378Z,87.49
2018-03-27T05:43:45.247Z,87.43
2018-03-27T05:46:15.047Z,87.37
2018-03-27T05:48:42.647Z,87.31
2018-03-27T05:51:10.325Z,87.23
2018-03-27T05:53:38.010Z,87.13
2018-03-27T05:56:05.645Z,87.04
2018-03-27T05:58:33.381Z,86.99
2018-03-27T06:01:01.032Z,86.84
2018-03-27T06:03:28.629Z,86.73
2018-03-27T06:05:56.412Z,86.60
2018-03-27T06:08:24.091Z,86.55
2018-03-27T06:10:51.674Z,86.65
2018-03-27T06:13:19.641Z,86.63
2018-03-27T06:15:48.403Z,86.71
2018-03-27T06:18:16.047Z,86.72
2018-03-27T06:20:43.697Z,86.78
2018-03-27T06:23:11.354Z,86.81
2018-03-27T06:25:39.370Z,87.00
2018-03-27T06:28:06.958Z,87.12
2018-03-27T06:30:34.595Z,87.15
2018-03-27T06:33:02.563Z,87.34
2018-03-27T06:35:30.280Z,87.32
2018-03-27T06:37:57.956Z,87.21
2018-03-27T06:40:26.943Z,87.21
2018-03-27T06:42:54.861Z,87.58
2018-03-27T06:45:22.457Z,87.87
2018-03-27T06:47:50.067Z,87.89
2018-03-27T06:50:17.655Z,88.34
2018-03-27T06:52:45.368Z,88.44
2018-03-27T06:55:13.121Z,88.54
2018-03-27T06:57:40.972Z,88.59
2018-03-27T07:00:08.618Z,88.82
2018-03-27T07:02:36.348Z,88.91
2018-03-27T07:05:04.328Z,89.34
2018-03-27T07:07:32.002Z,89.39
2018-03-27T07:09:59.960Z,89.90
2018-03-27T07:12:27.674Z,89.62
2018-03-27T07:14:55.878Z,89.58
2018-03-27T07:17:23.516Z,89.78
2018-03-27T07:19:51.220Z,89.69
2018-03-27T07:22:18.904Z,90.09
2018-03-27T07:24:46.533Z,90.17
2018-03-27T07:27:14.313Z,90.11
2018-03-27T07:29:42.290Z,90.24
2018-03-27T07:32:13.297Z,90.30
2018-03-27T07:34:40.955Z,90.41
2018-03-27T07:37:08.546Z,90.23
2018-03-27T07:39:36.159Z,90.01
2018-03-27T07:42:03.808Z,89.99
2018-03-27T07:44:31.414Z,89.37
2018-03-27T07:46:59.014Z,88.41
2018-03-27T07:49:26.629Z,88.43
2018-03-27T07:51:54.353Z,88.30
2018-03-27T07:54:21.952Z,88.10
2018-03-27T07:56:49.554Z,88.33
2018-03-27T07:59:17.206Z,87.83
2018-03-27T08:01:44.877Z,88.16
2018-03-27T08:04:12.482Z,89.44
2018-03-27T08:06:40.170Z,89.26
2018-03-27T08:09:07.750Z,89.46
2018-03-27T08:11:35.397Z,88.17
2018-03-27T08:14:02.988Z,87.27
2018-03-27T08:16:30.588Z,85.99
2018-03-27T08:18:58.209Z,86.19
2018-03-27T08:21:25.963Z,85.98
2018-03-27T08:23:53.657Z,86.08
2018-03-27T08:26:21.234Z,85.85
2018-03-27T08:28:48.866Z,84.43
2018-03-27T08:31:16.462Z,83.27
2018-03-27T08:33:44.113Z,80.17
2018-03-27T08:36:12.103Z,81.24
2018-03-27T08:38:39.652Z,79.80
2018-03-27T08:41:07.255Z,80.73
2018-03-27T08:43:35.018Z,81.99
2018-03-27T08:46:02.645Z,79.97
2018-03-27T08:48:30.332Z,79.35
2018-03-27T08:50:58.290Z,76.90
2018-03-27T08:53:25.895Z,77.01
2018-03-27T08:55:53.573Z,78.15
2018-03-27T08:58:21.252Z,78.34
2018-03-27T09:00:48.881Z,77.21
2018-03-27T09:03:16.891Z,76.57
2018-03-27T09:05:44.495Z,76.78
2018-03-27T09:08:12.116Z,76.63
2018-03-27T09:10:39.844Z,77.06
2018-03-27T09:13:07.510Z,75.89
2018-03-27T09:15:35.104Z,74.01
2018-03-27T09:18:02.762Z,74.60
2018-03-27T09:20:30.376Z,72.20
2018-03-27T09:22:57.986Z,72.51
2018-03-27T09:25:25.654Z,73.03
2018-03-27T09:27:53.312Z,72.60
2018-03-27T09:30:20.903Z,72.09
2018-03-27T09:32:48.558Z,69.65
2018-03-27T09:35:16.231Z,71.47
2018-03-27T09:37:43.905Z,69.70
2018-03-27T09:40:11.545Z,70.64
2018-03-27T09:42:39.527Z,71.29
2018-03-27T09:45:07.112Z,69.56
2018-03-27T09:47:35.130Z,68.70
2018-03-27T09:50:02.736Z,68.69
2018-03-27T09:52:30.341Z,69.31
2018-03-27T09:54:58.234Z,66.78
2018-03-27T09:57:25.847Z,65.98
2018-03-27T09:59:53.468Z,64.86
2018-03-27T10:02:21.530Z,63.26
2018-03-27T10:04:49.121Z,63.79
2018-03-27T10:07:16.726Z,63.29
2018-03-27T10:09:44.384Z,59.39
2018-03-27T10:12:12.010Z,60.99
2018-03-27T10:14:39.681Z,60.21
2018-03-27T10:17:07.303Z,56.92
2018-03-27T10:19:35.281Z,60.92
2018-03-27T10:22:02.892Z,56.94
2018-03-27T10:24:30.560Z,57.87
2018-03-27T10:26:58.269Z,58.44
2018-03-27T10:29:25.858Z,54.83
2018-03-27T10:31:53.547Z,55.36
2018-03-27T10:34:21.487Z,55.01
2018-03-27T10:36:49.165Z,53.89
2018-03-27T10:39:17.092Z,54.49
2018-03-27T10:41:44.797Z,53.74
2018-03-27T10:44:12.465Z,52.96
2018-03-27T10:46:40.088Z,53.31
2018-03-27T10:49:07.703Z,53.50
2018-03-27T10:51:35.611Z,54.15
2018-03-27T10:54:03.634Z,53.32
2018-03-27T10:56:31.289Z,52.10
2018-03-27T10:58:58.887Z,52.57
2018-03-27T11:01:26.748Z,52.56
2018-03-27T11:03:54.437Z,52.59
2018-03-27T11:06:22.128Z,53.46
2018-03-27T11:08:49.728Z,53.08
2018-03-27T11:11:17.354Z,51.60
2018-03-27T11:13:44.942Z,49.87
2018-03-27T11:16:12.948Z,51.37
2018-03-27T11:18:40.616Z,51.95
2018-03-27T11:21:08.271Z,50.86
2018-03-27T11:23:35.861Z,49.75
2018-03-27T11:26:03.813Z,49.77
2018-03-27T11:28:31.470Z,52.09
2018-03-27T11:30:59.082Z,50.52
2018-03-27T11:33:26.756Z,50.75
2018-03-27T11:35:54.368Z,51.13
2018-03-27T11:38:21.989Z,50.42
2018-03-27T11:40:49.586Z,49.99
2018-03-27T11:43:17.251Z,50.78
2018-03-27T11:45:44.854Z,50.87
2018-03-27T11:48:12.483Z,51.92
2018-03-27T11:50:40.096Z,50.21
2018-03-27T11:53:07.702Z,47.65
2018-03-27T11:55:35.408Z,49.13
2018-03-27T11:58:03.061Z,48.79
2018-03-27T12:00:30.884Z,49.54
2018-03-27T12:02:58.632Z,48.12
2018-03-27T12:05:26.274Z,48.80
2018-03-27T12:07:53.896Z,48.91
2018-03-27T12:10:21.525Z,43.94
2018-03-27T12:12:49.244Z,45.81
2018-03-27T12:15:16.856Z,46.75
2018-03-27T12:17:44.459Z,46.01
2018-03-27T12:20:12.451Z,46.29
2018-03-27T12:22:40.107Z,46.20
2018-03-27T12:25:07.782Z,45.39
2018-03-27T12:27:35.485Z,44.14
2018-03-27T12:30:03.439Z,45.41
2018-03-27T12:32:31.082Z,45.72
2018-03-27T12:34:59.046Z,42.34
2018-03-27T12:37:26.632Z,41.40
2018-03-27T12:39:54.227Z,43.87
2018-03-27T12:42:21.917Z,43.52
2018-03-27T12:44:49.521Z,41.52
2018-03-27T12:47:17.490Z,40.62
2018-03-27T12:49:45.156Z,41.97
2018-03-27T12:52:12.758Z,41.45
2018-03-27T12:54:40.393Z,39.65
2018-03-27T12:57:08.339Z,43.88
2018-03-27T12:59:36.206Z,43.95
2018-03-27T13:02:04.347Z,41.68
2018-03-27T13:04:31.955Z,40.63
2018-03-27T13:06:59.549Z,39.52
2018-03-27T13:09:27.251Z,41.19
2018-03-27T13:11:54.853Z,40.43
2018-03-27T13:14:22.786Z,41.47
2018-03-27T13:16:50.421Z,41.66
2018-03-27T13:19:18.023Z,42.08
2018-03-27T13:21:45.644Z,40.69
2018-03-27T13:24:13.254Z,41.86
2018-03-27T13:26:40.945Z,39.69
2018-03-27T13:29:08.872Z,39.92
2018-03-27T13:31:36.524Z,40.63
2018-03-27T13:34:04.404Z,40.67
2018-03-27T13:36:32.167Z,41.31
2018-03-27T13:38:59.873Z,40.66
2018-03-27T13:41:27.449Z,39.91
2018-03-27T13:43:55.079Z,40.37
2018-03-27T13:46:22.794Z,40.17
2018-03-27T13:48:50.409Z,39.50
2018-03-27T13:51:17.996Z,40.03
2018-03-27T13:53:45.648Z,40.86
2018-03-27T13:56:13.316Z,40.63
2018-03-27T13:58:40.934Z,40.30
2018-03-27T14:01:08.553Z,41.69
2018-03-27T14:03:36.453Z,42.07
2018-03-27T14:06:04.122Z,40.55
2018-03-27T14:08:31.708Z,41.03
2018-03-27T14:10:59.345Z,40.25
2018-03-27T14:13:26.947Z,41.04
2018-03-27T14:15:54.569Z,42.49
2018-03-27T14:18:22.240Z,42.49
2018-03-27T14:20:49.894Z,42.06
2018-03-27T14:23:17.495Z,42.52
2018-03-27T14:25:45.159Z,42.02
2018-03-27T14:28:12.788Z,42.22
2018-03-27T14:30:40.378Z,42.22
2018-03-27T14:33:08.046Z,42.92
2018-03-27T14:35:35.951Z,43.06
2018-03-27T14:38:03.622Z,43.93
2018-03-27T14:40:31.232Z,42.96
2018-03-27T14:42:58.831Z,43.93
2018-03-27T14:45:26.713Z,44.06
2018-03-27T14:47:54.307Z,42.94
2018-03-27T14:50:21.907Z,42.80
2018-03-27T14:52:49.589Z,42.60
2018-03-27T14:55:17.230Z,42.96
2018-03-27T14:57:44.836Z,43.22
2018-03-27T15:00:12.501Z,44.16
2018-03-27T15:02:40.472Z,44.01
2018-03-27T15:05:08.077Z,43.90
2018-03-27T15:07:35.981Z,44.34
2018-03-27T15:10:03.594Z,43.99
2018-03-27T15:12:31.607Z,44.47
2018-03-27T15:14:59.441Z,44.97
2018-03-27T15:17:27.040Z,44.05
2018-03-27T15:19:54.662Z,43.51
2018-03-27T15:22:22.320Z,43.43
2018-03-27T15:24:49.977Z,43.33
2018-03-27T15:27:17.899Z,46.89
2018-03-27T15:29:45.571Z,49.11
2018-03-27T15:32:13.240Z,47.73
2018-03-27T15:34:40.866Z,49.34
2018-03-27T15:37:08.507Z,47.79
2018-03-27T15:39:36.161Z,48.48
2018-03-27T15:42:03.753Z,48.43
2018-03-27T15:44:31.424Z,47.73
2018-03-27T15:46:59.007Z,47.08
2018-03-27T15:49:26.600Z,48.66
2018-03-27T15:51:54.248Z,48.94
2018-03-27T15:54:21.850Z,49.66
2018-03-27T15:56:49.508Z,50.52
2018-03-27T15:59:17.470Z,50.79
2018-03-27T16:01:45.146Z,50.89
2018-03-27T16:04:12.767Z,52.00
2018-03-27T16:06:40.449Z,52.55
2018-03-27T16:09:08.055Z,53.15
2018-03-27T16:11:35.667Z,54.50
2018-03-27T16:14:03.383Z,55.78
2018-03-27T16:16:31.368Z,56.37
2018-03-27T16:18:58.977Z,55.96
2018-03-27T16:21:27.366Z,56.29
2018-03-27T16:23:55.020Z,57.30
2018-03-27T16:26:22.688Z,58.99
2018-03-27T16:28:50.271Z,60.64
2018-03-27T16:31:17.914Z,61.02
2018-03-27T16:33:45.506Z,61.28
2018-03-27T16:36:13.094Z,59.88
2018-03-27T16:38:40.792Z,61.12
2018-03-27T16:41:08.379Z,61.95
2018-03-27T16:43:35.997Z,63.21
2018-03-27T16:46:03.933Z,62.86
2018-03-27T16:48:31.540Z,63.17
2018-03-27T16:50:59.121Z,62.46
2018-03-27T16:53:27.105Z,62.50
2018-03-27T16:55:55.137Z,62.28
2018-03-27T16:58:22.722Z,62.90
2018-03-27T17:00:50.703Z,63.59
2018-03-27T17:03:18.364Z,63.15
2018-03-27T17:05:46.334Z,63.16
2018-03-27T17:08:13.983Z,63.87
2018-03-27T17:10:41.645Z,63.71
2018-03-27T17:13:09.238Z,64.31
2018-03-27T17:15:36.897Z,64.29
2018-03-27T17:18:05.103Z,64.71
2018-03-27T17:20:32.688Z,64.55
2018-03-27T17:23:00.351Z,64.64
2018-03-27T17:25:27.952Z,64.80
2018-03-27T17:27:55.604Z,64.59
2018-03-27T17:30:23.331Z,64.75
2018-03-27T17:32:54.063Z,64.76
2018-03-27T17:35:21.666Z,65.14
2018-03-27T17:37:49.473Z,65.25
2018-03-27T17:40:17.301Z,65.91
2018-03-27T17:42:45.150Z,66.43
2018-03-27T17:45:13.208Z,66.50
2018-03-27T17:47:40.798Z,66.85
2018-03-27T17:50:08.461Z,67.13
2018-03-27T17:52:36.572Z,67.24
2018-03-27T17:55:04.455Z,67.27
2018-03-27T17:57:32.037Z,67.76
2018-03-27T17:59:59.662Z,67.80
2018-03-27T18:02:27.581Z,67.75
2018-03-27T18:04:55.558Z,67.77
2018-03-27T18:07:23.154Z,67.89
2018-03-27T18:09:51.090Z,67.86
2018-03-27T18:12:18.699Z,68.70
2018-03-27T18:14:46.593Z,68.99
2018-03-27T18:17:14.169Z,69.11
2018-03-27T18:19:42.009Z,69.62
2018-03-27T18:22:09.696Z,69.90
2018-03-27T18:24:37.567Z,70.19
2018-03-27T18:27:05.158Z,70.69
2018-03-27T18:29:32.849Z,70.99
2018-03-27T18:32:00.541Z,71.06
2018-03-27T18:34:28.424Z,71.52
2018-03-27T18:36:56.021Z,71.85
2018-03-27T18:39:23.678Z,71.90
2018-03-27T18:41:51.615Z,72.41
2018-03-27T18:44:19.269Z,72.73
2018-03-27T18:46:46.952Z,72.90
2018-03-27T18:49:14.662Z,73.00
2018-03-27T18:51:42.267Z,73.34
2018-03-27T18:54:09.907Z,73.38
2018-03-27T18:56:37.902Z,73.80
2018-03-27T18:59:05.490Z,73.96
2018-03-27T19:01:33.487Z,74.19
2018-03-27T19:04:01.060Z,74.18
2018-03-27T19:06:28.968Z,74.38
2018-03-27T19:08:56.586Z,74.65
2018-03-27T19:11:24.195Z,74.87
2018-03-27T19:13:51.845Z,75.40
2018-03-27T19:16:19.497Z,75.95
2018-03-27T19:18:47.059Z,76.06
2018-03-27T19:21:14.673Z,76.55
2018-03-27T19:23:42.659Z,76.81
2018-03-27T19:26:10.290Z,76.73
2018-03-27T19:28:37.909Z,77.04
2018-03-27T19:31:05.525Z,76.93
2018-03-27T19:33:33.109Z,77.11
2018-03-27T19:36:00.973Z,77.67
2018-03-27T19:38:28.839Z,78.21
2018-03-27T19:40:56.532Z,77.77
2018-03-27T19:43:24.180Z,77.42
2018-03-27T19:45:52.124Z,77.60
2018-03-27T19:48:19.733Z,77.54
2018-03-27T19:50:47.402Z,77.47
2018-03-27T19:53:15.066Z,77.71
2018-03-27T19:55:42.659Z,77.54
2018-03-27T19:58:10.378Z,77.90
2018-03-27T20:00:38.010Z,78.07
2018-03-27T20:03:05.605Z,78.25
2018-03-27T20:05:33.327Z,78.19
2018-03-27T20:08:00.913Z,78.64
2018-03-27T20:10:28.518Z,78.72
2018-03-27T20:12:56.137Z,78.93
2018-03-27T20:15:23.859Z,78.65
2018-03-27T20:17:51.558Z,78.89
2018-03-27T20:20:19.542Z,79.03
2018-03-27T20:22:47.667Z,79.53
2018-03-27T20:25:15.254Z,79.65
2018-03-27T20:27:43.143Z,79.70
2018-03-27T20:30:11.126Z,79.87
2018-03-27T20:32:38.777Z,80.08
2018-03-27T20:35:06.914Z,80.13
2018-03-27T20:37:34.505Z,80.15
2018-03-27T20:40:02.114Z,80.19
2018-03-27T20:42:30.192Z,80.42
2018-03-27T20:44:57.852Z,80.71
2018-03-27T20:47:25.440Z,81.04
2018-03-27T20:49:53.510Z,81.42
2018-03-27T20:52:21.153Z,81.57
2018-03-27T20:54:48.754Z,81.69
2018-03-27T20:57:16.448Z,81.60
2018-03-27T20:59:44.395Z,81.82
2018-03-27T21:02:12.288Z,81.92
2018-03-27T21:04:39.902Z,82.48
2018-03-27T21:07:07.582Z,82.50
2018-03-27T21:09:35.767Z,82.54
2018-03-27T21:12:04.196Z,82.85
2018-03-27T21:14:32.235Z,82.54
2018-03-27T21:17:00.166Z,82.55
2018-03-27T21:19:28.150Z,82.54
2018-03-27T21:21:56.104Z,82.44
2018-03-27T21:24:23.694Z,82.16
2018-03-27T21:26:51.378Z,82.32
2018-03-27T21:29:19.218Z,82.54
2018-03-27T21:31:46.796Z,82.43
2018-03-27T21:34:14.472Z,82.37
2018-03-27T21:36:42.146Z,82.22
2018-03-27T21:39:09.790Z,82.16
2018-03-27T21:41:37.730Z,82.20
2018-03-27T21:44:05.306Z,82.23
2018-03-27T21:46:33.305Z,82.07
2018-03-27T21:49:00.881Z,81.82
2018-03-27T21:51:28.468Z,82.09
2018-03-27T21:53:56.185Z,82.29
2018-03-27T21:56:23.772Z,82.28
2018-03-27T21:58:51.389Z,82.68
2018-03-27T22:01:19.434Z,82.68
2018-03-27T22:03:47.068Z,82.78
2018-03-27T22:06:14.727Z,82.92
2018-03-27T22:08:42.412Z,82.96
2018-03-27T22:11:10.013Z,83.20
2018-03-27T22:13:37.599Z,83.15
2018-03-27T22:16:05.230Z,83.18
2018-03-27T22:18:32.894Z,83.10
2018-03-27T22:21:00.529Z,83.29
2018-03-27T22:23:28.197Z,83.39
2018-03-27T22:25:55.878Z,83.49
2018-03-27T22:28:24.123Z,83.33
2018-03-27T22:30:51.715Z,83.32
2018-03-27T22:33:19.297Z,83.27
2018-03-27T22:35:47.214Z,83.34
2018-03-27T22:38:14.827Z,83.20
2018-03-27T22:40:43.796Z,83.30
2018-03-27T22:43:12.315Z,83.09
2018-03-27T22:45:43.907Z,83.06
2018-03-27T22:48:11.623Z,83.03
2018-03-27T22:50:39.202Z,83.05
2018-03-27T22:53:06.805Z,83.26
2018-03-27T22:55:34.516Z,83.19
2018-03-27T22:58:02.421Z,83.04
2018-03-27T23:00:30.086Z,82.84
2018-03-27T23:02:57.680Z,83.23
2018-03-27T23:05:25.315Z,83.17
2018-03-27T23:07:52.956Z,83.20
2018-03-27T23:10:20.942Z,83.45
2018-03-27T23:12:48.633Z,83.56
2018-03-27T23:15:16.239Z,83.57
2018-03-27T23:17:43.850Z,83.43
2018-03-27T23:20:11.441Z,83.63
2018-03-27T23:22:39.361Z,83.56
2018-03-27T23:25:06.989Z,83.49
2018-03-27T23:27:34.587Z,83.87
2018-03-27T23:30:02.178Z,83.78
2018-03-27T23:32:29.887Z,83.79
2018-03-27T23:34:57.570Z,83.89
2018-03-27T23:37:25.599Z,84.08
2018-03-27T23:39:53.609Z,84.03
2018-03-27T23:42:21.209Z,84.12
2018-03-27T23:44:49.149Z,84.18
2018-03-27T23:47:16.858Z,84.19
2018-03-27T23:49:44.875Z,84.17
2018-03-27T23:52:12.522Z,84.28
2018-03-27T23:54:40.228Z,84.34
2018-03-27T23:57:07.822Z,84.46
2018-03-27T23:59:35.487Z,84.75
